sensor_id;sensor_type;location;lat;lon;timestamp;P1;durP1;ratioP1;P2;durP2;ratioP2
40871;SDS011;26591;43.264;26.940;2022-07-23T00:00:04;9.18;;;2.38;;
40871;SDS011;26591;43.264;26.940;2022-07-23T00:02:31;7.80;;;2.20;;
40871;SDS011;26591;43.264;26.940;2022-07-23T00:04:56;4.05;;;2.10;;
40871;SDS011;26591;43.264;26.940;2022-07-23T00:07:22;4.15;;;2.47;;
40871;SDS011;26591;43.264;26.940;2022-07-23T00:09:47;4.80;;;2.10;;
40871;SDS011;26591;43.264;26.940;2022-07-23T00:12:13;4.75;;;2.10;;
40871;SDS011;26591;43.264;26.940;2022-07-23T00:14:38;8.15;;;2.22;;
40871;SDS011;26591;43.264;26.940;2022-07-23T00:17:04;4.97;;;2.40;;
40871;SDS011;26591;43.264;26.940;2022-07-23T00:19:29;4.35;;;1.83;;
40871;SDS011;26591;43.264;26.940;2022-07-23T00:21:55;5.60;;;2.55;;
40871;SDS011;26591;43.264;26.940;2022-07-23T00:24:21;3.80;;;2.20;;
40871;SDS011;26591;43.264;26.940;2022-07-23T00:26:46;7.85;;;2.20;;
40871;SDS011;26591;43.264;26.940;2022-07-23T00:29:12;7.85;;;4.38;;
40871;SDS011;26591;43.264;26.940;2022-07-23T00:31:37;7.40;;;2.00;;
40871;SDS011;26591;43.264;26.940;2022-07-23T00:34:03;3.58;;;2.33;;
40871;SDS011;26591;43.264;26.940;2022-07-23T00:36:28;7.13;;;2.00;;
40871;SDS011;26591;43.264;26.940;2022-07-23T00:38:56;3.95;;;1.98;;
40871;SDS011;26591;43.264;26.940;2022-07-23T00:41:21;7.38;;;2.08;;
40871;SDS011;26591;43.264;26.940;2022-07-23T00:43:47;5.20;;;2.20;;
40871;SDS011;26591;43.264;26.940;2022-07-23T00:46:12;7.53;;;2.30;;
40871;SDS011;26591;43.264;26.940;2022-07-23T00:48:38;6.85;;;2.10;;
40871;SDS011;26591;43.264;26.940;2022-07-23T00:51:04;9.00;;;2.25;;
40871;SDS011;26591;43.264;26.940;2022-07-23T00:53:30;8.60;;;2.35;;
40871;SDS011;26591;43.264;26.940;2022-07-23T00:55:56;10.30;;;2.00;;
40871;SDS011;26591;43.264;26.940;2022-07-23T00:58:23;5.53;;;2.10;;
40871;SDS011;26591;43.264;26.940;2022-07-23T01:00:49;7.35;;;2.30;;
40871;SDS011;26591;43.264;26.940;2022-07-23T01:03:15;8.63;;;2.00;;
40871;SDS011;26591;43.264;26.940;2022-07-23T01:05:40;3.65;;;2.13;;
40871;SDS011;26591;43.264;26.940;2022-07-23T01:08:06;4.63;;;2.10;;
40871;SDS011;26591;43.264;26.940;2022-07-23T01:10:32;5.90;;;2.00;;
40871;SDS011;26591;43.264;26.940;2022-07-23T01:13:15;5.90;;;1.98;;
40871;SDS011;26591;43.264;26.940;2022-07-23T01:15:41;3.63;;;1.90;;
40871;SDS011;26591;43.264;26.940;2022-07-23T01:18:07;6.25;;;2.30;;
40871;SDS011;26591;43.264;26.940;2022-07-23T01:20:33;4.82;;;1.98;;
40871;SDS011;26591;43.264;26.940;2022-07-23T01:22:59;7.03;;;2.22;;
40871;SDS011;26591;43.264;26.940;2022-07-23T01:25:24;6.85;;;2.20;;
40871;SDS011;26591;43.264;26.940;2022-07-23T01:27:51;6.00;;;2.30;;
40871;SDS011;26591;43.264;26.940;2022-07-23T01:30:18;4.10;;;1.98;;
40871;SDS011;26591;43.264;26.940;2022-07-23T01:32:44;9.05;;;4.38;;
40871;SDS011;26591;43.264;26.940;2022-07-23T01:35:10;8.85;;;2.92;;
40871;SDS011;26591;43.264;26.940;2022-07-23T01:37:36;8.55;;;2.63;;
40871;SDS011;26591;43.264;26.940;2022-07-23T01:40:02;5.20;;;2.70;;
40871;SDS011;26591;43.264;26.940;2022-07-23T01:42:29;6.10;;;2.80;;
40871;SDS011;26591;43.264;26.940;2022-07-23T01:44:54;6.45;;;2.70;;
40871;SDS011;26591;43.264;26.940;2022-07-23T01:47:20;5.32;;;2.50;;
40871;SDS011;26591;43.264;26.940;2022-07-23T01:49:46;6.40;;;2.75;;
40871;SDS011;26591;43.264;26.940;2022-07-23T01:52:11;7.82;;;2.90;;
40871;SDS011;26591;43.264;26.940;2022-07-23T01:54:37;12.10;;;2.72;;
40871;SDS011;26591;43.264;26.940;2022-07-23T01:57:04;7.38;;;3.30;;
40871;SDS011;26591;43.264;26.940;2022-07-23T01:59:31;10.48;;;2.78;;
40871;SDS011;26591;43.264;26.940;2022-07-23T02:01:56;7.05;;;2.70;;
40871;SDS011;26591;43.264;26.940;2022-07-23T02:04:23;8.95;;;2.88;;
40871;SDS011;26591;43.264;26.940;2022-07-23T02:06:49;10.73;;;2.90;;
40871;SDS011;26591;43.264;26.940;2022-07-23T02:09:15;6.10;;;3.00;;
40871;SDS011;26591;43.264;26.940;2022-07-23T02:11:41;8.23;;;2.92;;
40871;SDS011;26591;43.264;26.940;2022-07-23T02:14:07;10.23;;;2.80;;
40871;SDS011;26591;43.264;26.940;2022-07-23T02:16:32;11.25;;;3.53;;
40871;SDS011;26591;43.264;26.940;2022-07-23T02:18:58;6.97;;;2.40;;
40871;SDS011;26591;43.264;26.940;2022-07-23T02:21:23;6.40;;;3.13;;
40871;SDS011;26591;43.264;26.940;2022-07-23T02:23:49;6.25;;;3.08;;
40871;SDS011;26591;43.264;26.940;2022-07-23T02:26:14;4.97;;;2.50;;
40871;SDS011;26591;43.264;26.940;2022-07-23T02:28:40;4.07;;;2.53;;
40871;SDS011;26591;43.264;26.940;2022-07-23T02:31:05;5.72;;;3.05;;
40871;SDS011;26591;43.264;26.940;2022-07-23T02:33:32;4.93;;;2.88;;
40871;SDS011;26591;43.264;26.940;2022-07-23T02:35:58;8.55;;;2.80;;
40871;SDS011;26591;43.264;26.940;2022-07-23T02:38:23;11.50;;;3.15;;
40871;SDS011;26591;43.264;26.940;2022-07-23T02:40:49;7.60;;;2.97;;
40871;SDS011;26591;43.264;26.940;2022-07-23T02:43:14;6.45;;;2.80;;
40871;SDS011;26591;43.264;26.940;2022-07-23T02:45:40;8.27;;;3.05;;
40871;SDS011;26591;43.264;26.940;2022-07-23T02:48:05;9.80;;;2.60;;
40871;SDS011;26591;43.264;26.940;2022-07-23T02:50:31;10.98;;;2.90;;
40871;SDS011;26591;43.264;26.940;2022-07-23T02:52:56;9.05;;;3.08;;
40871;SDS011;26591;43.264;26.940;2022-07-23T02:55:22;8.02;;;3.17;;
40871;SDS011;26591;43.264;26.940;2022-07-23T02:57:47;8.38;;;3.03;;
40871;SDS011;26591;43.264;26.940;2022-07-23T03:00:13;9.27;;;3.00;;
40871;SDS011;26591;43.264;26.940;2022-07-23T03:02:39;7.93;;;3.20;;
40871;SDS011;26591;43.264;26.940;2022-07-23T03:05:04;8.80;;;3.40;;
40871;SDS011;26591;43.264;26.940;2022-07-23T03:07:30;17.85;;;3.83;;
40871;SDS011;26591;43.264;26.940;2022-07-23T03:09:56;11.70;;;3.70;;
40871;SDS011;26591;43.264;26.940;2022-07-23T03:12:21;9.88;;;5.05;;
40871;SDS011;26591;43.264;26.940;2022-07-23T03:14:47;22.30;;;5.55;;
40871;SDS011;26591;43.264;26.940;2022-07-23T03:17:13;7.30;;;3.70;;
40871;SDS011;26591;43.264;26.940;2022-07-23T03:19:38;13.63;;;3.42;;
40871;SDS011;26591;43.264;26.940;2022-07-23T03:22:04;14.52;;;3.03;;
40871;SDS011;26591;43.264;26.940;2022-07-23T03:24:30;6.03;;;3.10;;
40871;SDS011;26591;43.264;26.940;2022-07-23T03:27:14;12.85;;;3.10;;
40871;SDS011;26591;43.264;26.940;2022-07-23T03:29:40;11.73;;;3.17;;
40871;SDS011;26591;43.264;26.940;2022-07-23T03:32:05;9.82;;;3.47;;
40871;SDS011;26591;43.264;26.940;2022-07-23T03:34:31;6.63;;;3.08;;
40871;SDS011;26591;43.264;26.940;2022-07-23T03:36:57;9.27;;;3.45;;
40871;SDS011;26591;43.264;26.940;2022-07-23T03:39:22;11.75;;;3.30;;
40871;SDS011;26591;43.264;26.940;2022-07-23T03:41:48;6.05;;;2.80;;
40871;SDS011;26591;43.264;26.940;2022-07-23T03:44:13;11.57;;;3.40;;
40871;SDS011;26591;43.264;26.940;2022-07-23T03:46:39;36.10;;;3.72;;
40871;SDS011;26591;43.264;26.940;2022-07-23T03:49:04;6.22;;;3.10;;
40871;SDS011;26591;43.264;26.940;2022-07-23T03:51:30;8.40;;;2.78;;
40871;SDS011;26591;43.264;26.940;2022-07-23T03:53:55;16.58;;;3.00;;
40871;SDS011;26591;43.264;26.940;2022-07-23T03:56:21;8.77;;;3.28;;
40871;SDS011;26591;43.264;26.940;2022-07-23T03:58:47;12.88;;;3.90;;
40871;SDS011;26591;43.264;26.940;2022-07-23T04:01:12;13.00;;;3.30;;
40871;SDS011;26591;43.264;26.940;2022-07-23T04:03:38;11.82;;;3.53;;
40871;SDS011;26591;43.264;26.940;2022-07-23T04:06:05;10.07;;;3.53;;
40871;SDS011;26591;43.264;26.940;2022-07-23T04:08:31;19.98;;;4.00;;
40871;SDS011;26591;43.264;26.940;2022-07-23T04:10:57;14.10;;;4.82;;
40871;SDS011;26591;43.264;26.940;2022-07-23T04:13:22;13.48;;;4.00;;
40871;SDS011;26591;43.264;26.940;2022-07-23T04:15:48;19.58;;;4.22;;
40871;SDS011;26591;43.264;26.940;2022-07-23T04:18:14;19.92;;;4.43;;
40871;SDS011;26591;43.264;26.940;2022-07-23T04:20:42;12.38;;;4.20;;
40871;SDS011;26591;43.264;26.940;2022-07-23T04:23:08;12.75;;;3.50;;
40871;SDS011;26591;43.264;26.940;2022-07-23T04:25:34;13.23;;;3.47;;
40871;SDS011;26591;43.264;26.940;2022-07-23T04:28:00;8.35;;;3.58;;
40871;SDS011;26591;43.264;26.940;2022-07-23T04:30:26;12.27;;;3.50;;
40871;SDS011;26591;43.264;26.940;2022-07-23T04:32:51;6.43;;;2.85;;
40871;SDS011;26591;43.264;26.940;2022-07-23T04:35:17;10.50;;;3.30;;
40871;SDS011;26591;43.264;26.940;2022-07-23T04:37:42;8.57;;;3.45;;
40871;SDS011;26591;43.264;26.940;2022-07-23T04:40:08;17.02;;;3.55;;
40871;SDS011;26591;43.264;26.940;2022-07-23T04:42:34;7.53;;;3.28;;
40871;SDS011;26591;43.264;26.940;2022-07-23T04:45:00;13.55;;;3.55;;
40871;SDS011;26591;43.264;26.940;2022-07-23T04:47:25;16.08;;;3.95;;
40871;SDS011;26591;43.264;26.940;2022-07-23T04:49:51;10.95;;;3.15;;
40871;SDS011;26591;43.264;26.940;2022-07-23T04:52:16;11.02;;;3.42;;
40871;SDS011;26591;43.264;26.940;2022-07-23T04:54:42;9.02;;;3.70;;
40871;SDS011;26591;43.264;26.940;2022-07-23T04:57:07;11.65;;;3.72;;
40871;SDS011;26591;43.264;26.940;2022-07-23T04:59:33;10.40;;;3.95;;
40871;SDS011;26591;43.264;26.940;2022-07-23T05:01:58;15.50;;;4.00;;
40871;SDS011;26591;43.264;26.940;2022-07-23T05:04:24;13.23;;;4.78;;
40871;SDS011;26591;43.264;26.940;2022-07-23T05:06:49;13.25;;;3.53;;
40871;SDS011;26591;43.264;26.940;2022-07-23T05:09:15;14.80;;;3.45;;
40871;SDS011;26591;43.264;26.940;2022-07-23T05:11:40;11.30;;;3.67;;
40871;SDS011;26591;43.264;26.940;2022-07-23T05:14:06;12.45;;;3.50;;
40871;SDS011;26591;43.264;26.940;2022-07-23T05:16:32;16.33;;;3.50;;
40871;SDS011;26591;43.264;26.940;2022-07-23T05:18:57;10.45;;;3.70;;
40871;SDS011;26591;43.264;26.940;2022-07-23T05:21:23;12.40;;;3.67;;
40871;SDS011;26591;43.264;26.940;2022-07-23T05:23:48;13.70;;;4.00;;
40871;SDS011;26591;43.264;26.940;2022-07-23T05:26:14;10.52;;;3.70;;
40871;SDS011;26591;43.264;26.940;2022-07-23T05:28:39;8.77;;;3.55;;
40871;SDS011;26591;43.264;26.940;2022-07-23T05:31:05;19.33;;;3.65;;
40871;SDS011;26591;43.264;26.940;2022-07-23T05:33:31;13.23;;;3.78;;
40871;SDS011;26591;43.264;26.940;2022-07-23T05:36:00;15.55;;;3.80;;
40871;SDS011;26591;43.264;26.940;2022-07-23T05:38:27;17.55;;;3.45;;
40871;SDS011;26591;43.264;26.940;2022-07-23T05:40:53;13.73;;;3.67;;
40871;SDS011;26591;43.264;26.940;2022-07-23T05:43:18;13.73;;;3.90;;
40871;SDS011;26591;43.264;26.940;2022-07-23T05:45:44;33.35;;;4.53;;
40871;SDS011;26591;43.264;26.940;2022-07-23T05:48:09;22.58;;;5.10;;
40871;SDS011;26591;43.264;26.940;2022-07-23T05:50:35;28.55;;;4.97;;
40871;SDS011;26591;43.264;26.940;2022-07-23T05:53:00;39.88;;;4.88;;
40871;SDS011;26591;43.264;26.940;2022-07-23T05:55:26;33.58;;;5.28;;
40871;SDS011;26591;43.264;26.940;2022-07-23T05:57:54;20.80;;;4.15;;
40871;SDS011;26591;43.264;26.940;2022-07-23T06:00:24;29.95;;;5.07;;
40871;SDS011;26591;43.264;26.940;2022-07-23T06:02:49;28.40;;;4.57;;
40871;SDS011;26591;43.264;26.940;2022-07-23T06:05:15;17.98;;;4.40;;
40871;SDS011;26591;43.264;26.940;2022-07-23T06:07:41;21.50;;;4.53;;
40871;SDS011;26591;43.264;26.940;2022-07-23T06:10:07;20.75;;;4.05;;
40871;SDS011;26591;43.264;26.940;2022-07-23T06:12:33;15.63;;;3.83;;
40871;SDS011;26591;43.264;26.940;2022-07-23T06:14:59;12.75;;;3.50;;
40871;SDS011;26591;43.264;26.940;2022-07-23T06:17:24;13.00;;;3.85;;
40871;SDS011;26591;43.264;26.940;2022-07-23T06:19:50;12.13;;;3.67;;
40871;SDS011;26591;43.264;26.940;2022-07-23T06:22:16;11.88;;;3.45;;
40871;SDS011;26591;43.264;26.940;2022-07-23T06:24:41;16.35;;;3.70;;
40871;SDS011;26591;43.264;26.940;2022-07-23T06:27:07;23.40;;;3.90;;
40871;SDS011;26591;43.264;26.940;2022-07-23T06:29:32;27.15;;;3.90;;
40871;SDS011;26591;43.264;26.940;2022-07-23T06:31:58;33.50;;;4.57;;
40871;SDS011;26591;43.264;26.940;2022-07-23T06:34:24;24.95;;;4.10;;
40871;SDS011;26591;43.264;26.940;2022-07-23T06:36:49;23.15;;;4.78;;
40871;SDS011;26591;43.264;26.940;2022-07-23T06:39:15;29.60;;;4.47;;
40871;SDS011;26591;43.264;26.940;2022-07-23T06:41:40;17.08;;;3.22;;
40871;SDS011;26591;43.264;26.940;2022-07-23T06:44:06;30.33;;;3.88;;
40871;SDS011;26591;43.264;26.940;2022-07-23T06:46:32;21.58;;;4.25;;
40871;SDS011;26591;43.264;26.940;2022-07-23T06:48:57;31.02;;;3.22;;
40871;SDS011;26591;43.264;26.940;2022-07-23T06:51:23;19.55;;;3.40;;
40871;SDS011;26591;43.264;26.940;2022-07-23T06:53:48;14.13;;;3.78;;
40871;SDS011;26591;43.264;26.940;2022-07-23T06:56:14;13.13;;;3.50;;
40871;SDS011;26591;43.264;26.940;2022-07-23T06:58:39;20.85;;;3.03;;
40871;SDS011;26591;43.264;26.940;2022-07-23T07:01:05;6.50;;;3.25;;
40871;SDS011;26591;43.264;26.940;2022-07-23T07:03:31;18.23;;;2.58;;
40871;SDS011;26591;43.264;26.940;2022-07-23T07:05:56;10.98;;;3.10;;
40871;SDS011;26591;43.264;26.940;2022-07-23T07:08:22;9.40;;;3.10;;
40871;SDS011;26591;43.264;26.940;2022-07-23T07:10:48;10.00;;;2.80;;
40871;SDS011;26591;43.264;26.940;2022-07-23T07:13:14;16.88;;;3.15;;
40871;SDS011;26591;43.264;26.940;2022-07-23T07:15:39;20.98;;;3.20;;
40871;SDS011;26591;43.264;26.940;2022-07-23T07:18:05;28.08;;;3.40;;
40871;SDS011;26591;43.264;26.940;2022-07-23T07:20:31;18.10;;;3.42;;
40871;SDS011;26591;43.264;26.940;2022-07-23T07:22:56;26.42;;;3.30;;
40871;SDS011;26591;43.264;26.940;2022-07-23T07:25:22;11.50;;;2.70;;
40871;SDS011;26591;43.264;26.940;2022-07-23T07:27:47;14.73;;;3.22;;
40871;SDS011;26591;43.264;26.940;2022-07-23T07:30:13;16.58;;;3.13;;
40871;SDS011;26591;43.264;26.940;2022-07-23T07:32:39;11.93;;;3.00;;
40871;SDS011;26591;43.264;26.940;2022-07-23T07:35:05;9.45;;;2.72;;
40871;SDS011;26591;43.264;26.940;2022-07-23T07:37:30;21.10;;;2.95;;
40871;SDS011;26591;43.264;26.940;2022-07-23T07:39:56;18.52;;;2.60;;
40871;SDS011;26591;43.264;26.940;2022-07-23T07:42:25;11.57;;;2.63;;
40871;SDS011;26591;43.264;26.940;2022-07-23T07:44:51;10.48;;;2.47;;
40871;SDS011;26591;43.264;26.940;2022-07-23T07:47:17;9.25;;;2.58;;
40871;SDS011;26591;43.264;26.940;2022-07-23T07:49:43;10.65;;;2.53;;
40871;SDS011;26591;43.264;26.940;2022-07-23T07:52:09;16.92;;;2.80;;
40871;SDS011;26591;43.264;26.940;2022-07-23T07:54:35;19.20;;;2.30;;
40871;SDS011;26591;43.264;26.940;2022-07-23T07:57:01;20.65;;;2.65;;
40871;SDS011;26591;43.264;26.940;2022-07-23T07:59:27;19.60;;;2.85;;
40871;SDS011;26591;43.264;26.940;2022-07-23T08:01:52;20.98;;;3.00;;
40871;SDS011;26591;43.264;26.940;2022-07-23T08:04:18;11.85;;;2.28;;
40871;SDS011;26591;43.264;26.940;2022-07-23T08:06:44;9.88;;;2.22;;
40871;SDS011;26591;43.264;26.940;2022-07-23T08:09:09;9.75;;;1.80;;
40871;SDS011;26591;43.264;26.940;2022-07-23T08:11:35;6.38;;;2.10;;
40871;SDS011;26591;43.264;26.940;2022-07-23T08:14:01;9.40;;;2.13;;
40871;SDS011;26591;43.264;26.940;2022-07-23T08:16:26;7.68;;;2.08;;
40871;SDS011;26591;43.264;26.940;2022-07-23T08:18:52;4.97;;;1.83;;
40871;SDS011;26591;43.264;26.940;2022-07-23T08:21:18;5.32;;;1.88;;
40871;SDS011;26591;43.264;26.940;2022-07-23T08:23:43;24.10;;;2.63;;
40871;SDS011;26591;43.264;26.940;2022-07-23T08:26:09;9.20;;;2.50;;
40871;SDS011;26591;43.264;26.940;2022-07-23T08:28:34;9.52;;;1.92;;
40871;SDS011;26591;43.264;26.940;2022-07-23T08:31:00;13.02;;;2.47;;
40871;SDS011;26591;43.264;26.940;2022-07-23T08:33:26;8.30;;;1.90;;
40871;SDS011;26591;43.264;26.940;2022-07-23T08:35:52;8.82;;;1.80;;
40871;SDS011;26591;43.264;26.940;2022-07-23T08:38:19;10.40;;;1.90;;
40871;SDS011;26591;43.264;26.940;2022-07-23T08:40:50;7.82;;;1.98;;
40871;SDS011;26591;43.264;26.940;2022-07-23T08:43:22;4.72;;;1.90;;
40871;SDS011;26591;43.264;26.940;2022-07-23T08:45:50;4.45;;;1.77;;
40871;SDS011;26591;43.264;26.940;2022-07-23T08:48:18;3.95;;;1.80;;
40871;SDS011;26591;43.264;26.940;2022-07-23T08:50:45;10.10;;;2.15;;
40871;SDS011;26591;43.264;26.940;2022-07-23T08:53:13;6.68;;;2.08;;
40871;SDS011;26591;43.264;26.940;2022-07-23T08:55:40;10.70;;;2.30;;
40871;SDS011;26591;43.264;26.940;2022-07-23T08:58:09;6.30;;;2.20;;
40871;SDS011;26591;43.264;26.940;2022-07-23T09:00:35;10.38;;;2.67;;
40871;SDS011;26591;43.264;26.940;2022-07-23T09:03:00;5.22;;;2.20;;
40871;SDS011;26591;43.264;26.940;2022-07-23T09:05:26;9.70;;;2.30;;
40871;SDS011;26591;43.264;26.940;2022-07-23T09:10:42;12.65;;;2.38;;
40871;SDS011;26591;43.264;26.940;2022-07-23T09:16:12;9.68;;;2.25;;
40871;SDS011;26591;43.264;26.940;2022-07-23T09:18:49;9.63;;;2.30;;
40871;SDS011;26591;43.264;26.940;2022-07-23T09:21:24;10.05;;;2.17;;
40871;SDS011;26591;43.264;26.940;2022-07-23T09:24:00;9.48;;;2.35;;
40871;SDS011;26591;43.264;26.940;2022-07-23T09:31:30;12.60;;;2.72;;
40871;SDS011;26591;43.264;26.940;2022-07-23T09:34:08;11.45;;;2.50;;
40871;SDS011;26591;43.264;26.940;2022-07-23T09:36:34;6.65;;;2.35;;
40871;SDS011;26591;43.264;26.940;2022-07-23T09:39:00;10.80;;;2.47;;
40871;SDS011;26591;43.264;26.940;2022-07-23T09:41:27;5.38;;;2.70;;
40871;SDS011;26591;43.264;26.940;2022-07-23T09:44:06;5.88;;;2.35;;
40871;SDS011;26591;43.264;26.940;2022-07-23T09:46:50;8.23;;;2.30;;
40871;SDS011;26591;43.264;26.940;2022-07-23T09:49:23;9.07;;;2.70;;
40871;SDS011;26591;43.264;26.940;2022-07-23T09:51:54;8.02;;;2.63;;
40871;SDS011;26591;43.264;26.940;2022-07-23T09:54:23;8.20;;;2.40;;
40871;SDS011;26591;43.264;26.940;2022-07-23T09:56:54;5.10;;;2.38;;
40871;SDS011;26591;43.264;26.940;2022-07-23T09:59:25;6.13;;;2.50;;
40871;SDS011;26591;43.264;26.940;2022-07-23T10:01:54;6.07;;;2.40;;
40871;SDS011;26591;43.264;26.940;2022-07-23T10:04:22;6.57;;;2.53;;
40871;SDS011;26591;43.264;26.940;2022-07-23T10:06:52;5.68;;;2.45;;
40871;SDS011;26591;43.264;26.940;2022-07-23T10:09:23;7.85;;;2.53;;
40871;SDS011;26591;43.264;26.940;2022-07-23T10:11:54;11.98;;;2.60;;
40871;SDS011;26591;43.264;26.940;2022-07-23T10:14:25;12.48;;;2.30;;
40871;SDS011;26591;43.264;26.940;2022-07-23T10:16:52;8.85;;;2.50;;
40871;SDS011;26591;43.264;26.940;2022-07-23T10:19:18;6.03;;;2.55;;
40871;SDS011;26591;43.264;26.940;2022-07-23T10:21:48;6.18;;;2.50;;
40871;SDS011;26591;43.264;26.940;2022-07-23T10:27:23;14.43;;;2.20;;
40871;SDS011;26591;43.264;26.940;2022-07-23T10:30:05;8.45;;;2.50;;
40871;SDS011;26591;43.264;26.940;2022-07-23T10:32:56;6.75;;;3.60;;
40871;SDS011;26591;43.264;26.940;2022-07-23T10:35:37;13.85;;;3.10;;
40871;SDS011;26591;43.264;26.940;2022-07-23T10:41:00;7.85;;;2.80;;
40871;SDS011;26591;43.264;26.940;2022-07-23T10:43:27;8.55;;;2.47;;
40871;SDS011;26591;43.264;26.940;2022-07-23T10:45:53;13.55;;;3.85;;
40871;SDS011;26591;43.264;26.940;2022-07-23T10:48:20;13.68;;;2.70;;
40871;SDS011;26591;43.264;26.940;2022-07-23T10:51:07;8.63;;;2.60;;
40871;SDS011;26591;43.264;26.940;2022-07-23T10:56:16;6.97;;;2.75;;
40871;SDS011;26591;43.264;26.940;2022-07-23T10:59:05;22.65;;;3.33;;
40871;SDS011;26591;43.264;26.940;2022-07-23T11:01:31;9.40;;;3.58;;
40871;SDS011;26591;43.264;26.940;2022-07-23T11:04:02;6.43;;;2.72;;
40871;SDS011;26591;43.264;26.940;2022-07-23T11:09:23;3.80;;;2.40;;
40871;SDS011;26591;43.264;26.940;2022-07-23T11:11:49;9.57;;;3.05;;
40871;SDS011;26591;43.264;26.940;2022-07-23T11:14:15;7.85;;;2.92;;
40871;SDS011;26591;43.264;26.940;2022-07-23T11:17:00;17.83;;;3.70;;
40871;SDS011;26591;43.264;26.940;2022-07-23T11:19:26;12.73;;;2.72;;
40871;SDS011;26591;43.264;26.940;2022-07-23T11:21:51;7.97;;;2.25;;
40871;SDS011;26591;43.264;26.940;2022-07-23T11:24:18;8.00;;;3.05;;
40871;SDS011;26591;43.264;26.940;2022-07-23T11:31:52;7.90;;;2.90;;
40871;SDS011;26591;43.264;26.940;2022-07-23T11:34:29;10.00;;;2.90;;
40871;SDS011;26591;43.264;26.940;2022-07-23T11:36:59;14.80;;;2.90;;
40871;SDS011;26591;43.264;26.940;2022-07-23T11:39:27;10.27;;;2.85;;
40871;SDS011;26591;43.264;26.940;2022-07-23T11:41:55;8.65;;;3.15;;
40871;SDS011;26591;43.264;26.940;2022-07-23T11:44:34;12.95;;;2.97;;
40871;SDS011;26591;43.264;26.940;2022-07-23T11:49:31;21.88;;;3.20;;
40871;SDS011;26591;43.264;26.940;2022-07-23T11:52:11;11.77;;;3.00;;
40871;SDS011;26591;43.264;26.940;2022-07-23T11:54:57;4.82;;;3.92;;
40871;SDS011;26591;43.264;26.940;2022-07-23T11:57:31;11.82;;;3.28;;
40871;SDS011;26591;43.264;26.940;2022-07-23T12:00:09;8.73;;;2.90;;
40871;SDS011;26591;43.264;26.940;2022-07-23T12:02:38;6.43;;;2.78;;
40871;SDS011;26591;43.264;26.940;2022-07-23T12:05:13;6.80;;;2.88;;
40871;SDS011;26591;43.264;26.940;2022-07-23T12:07:41;14.35;;;3.72;;
40871;SDS011;26591;43.264;26.940;2022-07-23T12:10:56;12.98;;;3.40;;
40871;SDS011;26591;43.264;26.940;2022-07-23T12:13:06;9.15;;;2.55;;
40871;SDS011;26591;43.264;26.940;2022-07-23T12:15:44;9.88;;;3.25;;
40871;SDS011;26591;43.264;26.940;2022-07-23T12:18:18;7.72;;;2.97;;
40871;SDS011;26591;43.264;26.940;2022-07-23T12:20:47;7.88;;;2.85;;
40871;SDS011;26591;43.264;26.940;2022-07-23T12:23:15;10.50;;;3.22;;
40871;SDS011;26591;43.264;26.940;2022-07-23T12:25:43;8.32;;;2.88;;
40871;SDS011;26591;43.264;26.940;2022-07-23T12:28:14;8.50;;;3.05;;
40871;SDS011;26591;43.264;26.940;2022-07-23T12:30:43;12.43;;;3.17;;
40871;SDS011;26591;43.264;26.940;2022-07-23T12:33:11;6.87;;;2.63;;
40871;SDS011;26591;43.264;26.940;2022-07-23T12:35:42;11.60;;;3.50;;
40871;SDS011;26591;43.264;26.940;2022-07-23T12:38:11;6.85;;;2.80;;
40871;SDS011;26591;43.264;26.940;2022-07-23T12:43:10;8.77;;;2.80;;
40871;SDS011;26591;43.264;26.940;2022-07-23T12:45:45;10.25;;;3.15;;
40871;SDS011;26591;43.264;26.940;2022-07-23T12:48:18;9.98;;;2.92;;
40871;SDS011;26591;43.264;26.940;2022-07-23T12:50:52;6.45;;;3.10;;
40871;SDS011;26591;43.264;26.940;2022-07-23T12:56:17;9.60;;;3.15;;
40871;SDS011;26591;43.264;26.940;2022-07-23T12:58:48;11.35;;;3.08;;
40871;SDS011;26591;43.264;26.940;2022-07-23T13:04:06;14.48;;;3.47;;
40871;SDS011;26591;43.264;26.940;2022-07-23T13:06:33;12.88;;;3.45;;
40871;SDS011;26591;43.264;26.940;2022-07-23T13:09:04;5.50;;;2.75;;
40871;SDS011;26591;43.264;26.940;2022-07-23T13:11:32;6.43;;;2.85;;
40871;SDS011;26591;43.264;26.940;2022-07-23T13:13:59;8.63;;;3.35;;
40871;SDS011;26591;43.264;26.940;2022-07-23T13:16:29;9.68;;;3.22;;
40871;SDS011;26591;43.264;26.940;2022-07-23T13:18:55;8.77;;;3.22;;
40871;SDS011;26591;43.264;26.940;2022-07-23T13:21:22;9.32;;;3.10;;
40871;SDS011;26591;43.264;26.940;2022-07-23T13:23:48;10.73;;;3.28;;
40871;SDS011;26591;43.264;26.940;2022-07-23T13:26:14;7.65;;;3.28;;
40871;SDS011;26591;43.264;26.940;2022-07-23T13:28:40;9.55;;;3.45;;
40871;SDS011;26591;43.264;26.940;2022-07-23T13:31:05;8.07;;;3.03;;
40871;SDS011;26591;43.264;26.940;2022-07-23T13:33:31;15.52;;;3.67;;
40871;SDS011;26591;43.264;26.940;2022-07-23T13:35:57;12.90;;;3.40;;
40871;SDS011;26591;43.264;26.940;2022-07-23T13:38:22;5.38;;;3.00;;
40871;SDS011;26591;43.264;26.940;2022-07-23T13:40:48;9.63;;;3.13;;
40871;SDS011;26591;43.264;26.940;2022-07-23T13:43:18;12.20;;;3.00;;
40871;SDS011;26591;43.264;26.940;2022-07-23T13:45:45;7.78;;;3.10;;
40871;SDS011;26591;43.264;26.940;2022-07-23T13:48:11;12.13;;;3.20;;
40871;SDS011;26591;43.264;26.940;2022-07-23T13:50:38;9.82;;;3.47;;
40871;SDS011;26591;43.264;26.940;2022-07-23T13:53:06;3.78;;;2.60;;
40871;SDS011;26591;43.264;26.940;2022-07-23T13:55:34;6.15;;;3.15;;
40871;SDS011;26591;43.264;26.940;2022-07-23T13:58:01;15.95;;;3.42;;
40871;SDS011;26591;43.264;26.940;2022-07-23T14:00:27;12.95;;;3.70;;
40871;SDS011;26591;43.264;26.940;2022-07-23T14:02:54;11.63;;;3.03;;
40871;SDS011;26591;43.264;26.940;2022-07-23T14:05:19;7.45;;;3.40;;
40871;SDS011;26591;43.264;26.940;2022-07-23T14:07:45;7.82;;;3.40;;
40871;SDS011;26591;43.264;26.940;2022-07-23T14:10:12;7.03;;;2.97;;
40871;SDS011;26591;43.264;26.940;2022-07-23T14:12:38;10.35;;;3.67;;
40871;SDS011;26591;43.264;26.940;2022-07-23T14:15:04;13.55;;;3.40;;
40871;SDS011;26591;43.264;26.940;2022-07-23T14:17:31;11.23;;;3.60;;
40871;SDS011;26591;43.264;26.940;2022-07-23T14:19:57;5.10;;;3.45;;
40871;SDS011;26591;43.264;26.940;2022-07-23T14:22:23;9.00;;;4.38;;
40871;SDS011;26591;43.264;26.940;2022-07-23T14:24:49;12.52;;;4.45;;
40871;SDS011;26591;43.264;26.940;2022-07-23T14:27:14;8.27;;;3.47;;
40871;SDS011;26591;43.264;26.940;2022-07-23T14:29:40;8.20;;;3.58;;
40871;SDS011;26591;43.264;26.940;2022-07-23T14:32:06;10.20;;;2.83;;
40871;SDS011;26591;43.264;26.940;2022-07-23T14:34:31;13.18;;;3.35;;
40871;SDS011;26591;43.264;26.940;2022-07-23T14:36:58;12.23;;;2.95;;
40871;SDS011;26591;43.264;26.940;2022-07-23T14:39:24;9.48;;;3.40;;
40871;SDS011;26591;43.264;26.940;2022-07-23T14:41:49;10.25;;;3.50;;
40871;SDS011;26591;43.264;26.940;2022-07-23T14:44:15;9.13;;;3.58;;
40871;SDS011;26591;43.264;26.940;2022-07-23T14:46:40;8.43;;;3.28;;
40871;SDS011;26591;43.264;26.940;2022-07-23T14:49:06;12.10;;;4.10;;
40871;SDS011;26591;43.264;26.940;2022-07-23T14:51:32;9.65;;;3.15;;
40871;SDS011;26591;43.264;26.940;2022-07-23T14:53:58;8.65;;;3.00;;
40871;SDS011;26591;43.264;26.940;2022-07-23T14:56:23;6.68;;;2.85;;
40871;SDS011;26591;43.264;26.940;2022-07-23T14:58:49;17.30;;;3.70;;
40871;SDS011;26591;43.264;26.940;2022-07-23T15:01:15;4.10;;;3.05;;
40871;SDS011;26591;43.264;26.940;2022-07-23T15:03:40;9.25;;;3.42;;
40871;SDS011;26591;43.264;26.940;2022-07-23T15:06:07;6.93;;;2.75;;